createdAt,value
2018-06-22T00:00:13.553Z,10.30
2018-06-22T00:00:47.767Z,10.30
2018-06-22T00:01:21.670Z,10.30
2018-06-22T00:01:55.931Z,10.30
2018-06-22T00:02:30.437Z,10.30
2018-06-22T00:03:04.626Z,10.30
2018-06-22T00:03:38.509Z,10.30
2018-06-22T00:04:12.635Z,10.30
2018-06-22T00:04:46.506Z,10.30
2018-06-22T00:05:20.397Z,10.30
2018-06-22T00:05:54.284Z,10.30
2018-06-22T00:06:28.420Z,10.30
2018-06-22T00:07:02.273Z,10.30
2018-06-22T00:07:36.192Z,10.30
2018-06-22T00:08:10.397Z,10.30
2018-06-22T00:08:44.325Z,10.30
2018-06-22T00:09:18.199Z,10.30
2018-06-22T00:09:52.357Z,10.40
2018-06-22T00:10:26.211Z,10.40
2018-06-22T00:11:34.202Z,10.40
2018-06-22T00:12:08.463Z,10.40
2018-06-22T00:12:42.359Z,10.30
2018-06-22T00:13:16.279Z,10.30
2018-06-22T00:13:50.442Z,10.40
2018-06-22T00:14:24.413Z,10.40
2018-06-22T00:14:58.270Z,10.40
2018-06-22T00:15:32.419Z,10.40
2018-06-22T00:16:06.525Z,10.40
2018-06-22T00:16:40.405Z,10.40
2018-06-22T00:17:14.875Z,10.40
2018-06-22T00:17:48.759Z,10.40
2018-06-22T00:18:22.870Z,10.40
2018-06-22T00:18:56.731Z,10.30
2018-06-22T00:19:30.915Z,10.40
2018-06-22T00:20:05.101Z,10.30
2018-06-22T00:20:39.015Z,10.30
2018-06-22T00:21:12.943Z,10.30
2018-06-22T00:21:47.379Z,10.30
2018-06-22T00:22:21.239Z,10.30
2018-06-22T00:22:55.431Z,10.30
2018-06-22T00:23:29.337Z,10.30
2018-06-22T00:24:03.235Z,10.30
2018-06-22T00:24:37.553Z,10.30
2018-06-22T00:25:11.461Z,10.30
2018-06-22T00:25:45.417Z,10.30
2018-06-22T00:26:20.182Z,10.30
2018-06-22T00:26:55.805Z,10.30
2018-06-22T00:27:29.779Z,10.30
2018-06-22T00:28:03.937Z,10.30
2018-06-22T00:28:37.833Z,10.20
2018-06-22T00:29:11.772Z,10.30
2018-06-22T00:29:46.289Z,10.20
2018-06-22T00:30:20.422Z,10.20
2018-06-22T00:30:54.575Z,10.20
2018-06-22T00:31:28.755Z,10.20
2018-06-22T00:32:02.879Z,10.20
2018-06-22T00:32:36.767Z,10.20
2018-06-22T00:33:10.686Z,10.20
2018-06-22T00:33:44.859Z,10.10
2018-06-22T00:34:18.746Z,10.10
2018-06-22T00:34:52.659Z,10.10
2018-06-22T00:35:28.381Z,10.10
2018-06-22T00:36:02.276Z,10.10
2018-06-22T00:36:36.539Z,10.10
2018-06-22T00:37:10.673Z,10.10
2018-06-22T00:37:45.133Z,10.10
2018-06-22T00:38:19.277Z,10.10
2018-06-22T00:38:53.496Z,10.10
2018-06-22T00:39:27.621Z,10.10
2018-06-22T00:40:01.894Z,10.10
2018-06-22T00:40:36.029Z,10.10
2018-06-22T00:41:10.154Z,10.10
2018-06-22T00:41:44.302Z,10.00
2018-06-22T00:42:18.431Z,10.00
2018-06-22T00:42:52.339Z,10.00
2018-06-22T00:43:26.472Z,10.10
2018-06-22T00:44:00.372Z,10.00
2018-06-22T00:44:34.586Z,10.10
2018-06-22T00:45:08.799Z,10.10
2018-06-22T00:45:43.011Z,10.10
2018-06-22T00:46:16.889Z,10.10
2018-06-22T00:46:50.773Z,10.00
2018-06-22T00:47:24.669Z,10.10
2018-06-22T00:47:58.785Z,10.10
2018-06-22T00:48:33.050Z,10.10
2018-06-22T00:49:07.527Z,10.10
2018-06-22T00:49:41.617Z,10.10
2018-06-22T00:50:15.547Z,10.10
2018-06-22T00:50:49.746Z,10.10
2018-06-22T00:51:23.636Z,10.10
2018-06-22T00:51:57.509Z,10.10
2018-06-22T00:52:31.658Z,10.10
2018-06-22T00:53:15.997Z,10.10
2018-06-22T00:54:01.691Z,10.20
2018-06-22T00:54:35.874Z,10.20
2018-06-22T00:55:10.042Z,10.20
2018-06-22T00:56:17.732Z,10.20
2018-06-22T00:57:25.382Z,10.20
2018-06-22T00:57:59.529Z,10.20
2018-06-22T00:58:33.697Z,10.20
2018-06-22T00:59:07.593Z,10.20
2018-06-22T00:59:41.757Z,10.20
2018-06-22T01:00:15.900Z,10.20
2018-06-22T01:00:50.056Z,10.20
2018-06-22T01:01:24.193Z,10.20
2018-06-22T01:01:58.096Z,10.20
2018-06-22T01:02:32.236Z,10.20
2018-06-22T01:03:06.390Z,10.20
2018-06-22T01:03:40.655Z,10.20
2018-06-22T01:04:14.815Z,10.20
2018-06-22T01:04:48.709Z,10.20
2018-06-22T01:05:22.572Z,10.10
2018-06-22T01:05:56.704Z,10.10
2018-06-22T01:06:31.006Z,10.10
2018-06-22T01:07:05.564Z,10.20
2018-06-22T01:07:39.714Z,10.10
2018-06-22T01:08:13.596Z,10.10
2018-06-22T01:08:47.514Z,10.10
2018-06-22T01:09:21.761Z,10.10
2018-06-22T01:09:55.649Z,10.10
2018-06-22T01:10:29.894Z,10.10
2018-06-22T01:11:05.546Z,10.10
2018-06-22T01:11:46.247Z,10.10
2018-06-22T01:12:23.472Z,10.10
2018-06-22T01:12:57.375Z,10.10
2018-06-22T01:13:31.719Z,10.10
2018-06-22T01:14:05.773Z,10.10
2018-06-22T01:14:39.667Z,10.10
2018-06-22T01:15:13.850Z,10.10
2018-06-22T01:15:48.020Z,10.10
2018-06-22T01:16:22.317Z,10.10
2018-06-22T01:16:56.273Z,10.10
2018-06-22T01:17:32.054Z,10.10
2018-06-22T01:18:06.663Z,10.10
2018-06-22T01:18:41.184Z,10.10
2018-06-22T01:19:15.086Z,10.10
2018-06-22T01:19:49.072Z,10.10
2018-06-22T01:20:23.204Z,10.10
2018-06-22T01:20:57.076Z,10.10
2018-06-22T01:21:30.966Z,10.10
2018-06-22T01:22:04.850Z,10.10
2018-06-22T01:22:39.036Z,10.20
2018-06-22T01:23:12.908Z,10.20
2018-06-22T01:23:46.792Z,10.20
2018-06-22T01:24:20.668Z,10.20
2018-06-22T01:24:54.547Z,10.20
2018-06-22T01:25:28.696Z,10.20
2018-06-22T01:26:02.850Z,10.20
2018-06-22T01:26:36.721Z,10.20
2018-06-22T01:27:10.620Z,10.20
2018-06-22T01:27:44.509Z,10.20
2018-06-22T01:28:18.671Z,10.20
2018-06-22T01:28:57.061Z,10.20
2018-06-22T01:29:32.051Z,10.20
2018-06-22T01:30:05.984Z,10.20
2018-06-22T01:30:40.168Z,10.20
2018-06-22T01:31:14.372Z,10.20
2018-06-22T01:31:48.267Z,10.20
2018-06-22T01:32:22.172Z,10.20
2018-06-22T01:32:56.117Z,10.20
2018-06-22T01:33:30.260Z,10.20
2018-06-22T01:34:04.475Z,10.20
2018-06-22T01:34:38.371Z,10.20
2018-06-22T01:35:12.320Z,10.20
2018-06-22T01:35:46.248Z,10.20
2018-06-22T01:36:20.128Z,10.20
2018-06-22T01:36:54.045Z,10.20
2018-06-22T01:37:28.221Z,10.10
2018-06-22T01:38:02.090Z,10.20
2018-06-22T01:38:36.244Z,10.20
2018-06-22T01:39:10.174Z,10.20
2018-06-22T01:39:44.121Z,10.20
2018-06-22T01:40:18.057Z,10.10
2018-06-22T01:40:52.089Z,10.10
2018-06-22T01:41:26.491Z,10.10
2018-06-22T01:42:00.710Z,10.10
2018-06-22T01:42:34.646Z,10.10
2018-06-22T01:43:08.497Z,10.10
2018-06-22T01:43:42.440Z,10.10
2018-06-22T01:44:16.597Z,10.10
2018-06-22T01:44:50.748Z,10.10
2018-06-22T01:45:24.679Z,10.10
2018-06-22T01:45:58.877Z,10.10
2018-06-22T01:46:32.766Z,10.10
2018-06-22T01:47:06.679Z,10.10
2018-06-22T01:47:40.810Z,10.10
2018-06-22T01:48:14.986Z,10.10
2018-06-22T01:48:49.969Z,10.10
2018-06-22T01:49:23.878Z,10.10
2018-06-22T01:49:57.807Z,10.10
2018-06-22T01:50:31.726Z,10.10
2018-06-22T01:51:05.668Z,10.10
2018-06-22T01:51:39.612Z,10.10
2018-06-22T01:52:47.513Z,10.10
2018-06-22T01:53:22.305Z,10.10
2018-06-22T01:53:56.387Z,10.10
2018-06-22T01:54:30.527Z,10.10
2018-06-22T01:55:04.948Z,10.10
2018-06-22T01:55:39.154Z,10.10
2018-06-22T01:56:13.333Z,10.10
2018-06-22T01:56:47.259Z,10.10
2018-06-22T01:57:21.172Z,10.00
2018-06-22T01:57:55.313Z,10.00
2018-06-22T01:58:29.181Z,10.00
2018-06-22T01:59:03.013Z,10.00
2018-06-22T01:59:36.926Z,10.00
2018-06-22T02:00:10.890Z,10.00
2018-06-22T02:00:44.826Z,10.00
2018-06-22T02:01:18.700Z,10.00
2018-06-22T02:01:52.989Z,10.00
2018-06-22T02:02:27.030Z,10.10
2018-06-22T02:03:00.905Z,10.10
2018-06-22T02:03:34.804Z,10.00
2018-06-22T02:04:08.723Z,10.10
2018-06-22T02:04:43.284Z,10.00
2018-06-22T02:05:17.178Z,10.10
2018-06-22T02:05:51.152Z,10.10
2018-06-22T02:06:25.210Z,10.10
2018-06-22T02:06:59.090Z,10.10
2018-06-22T02:07:33.268Z,10.10
2018-06-22T02:08:07.982Z,10.10
2018-06-22T02:08:42.065Z,10.10
2018-06-22T02:09:16.098Z,10.10
2018-06-22T02:09:50.348Z,10.10
2018-06-22T02:10:24.278Z,10.10
2018-06-22T02:10:58.488Z,10.10
2018-06-22T02:11:32.378Z,10.10
2018-06-22T02:12:06.680Z,10.10
2018-06-22T02:12:40.573Z,10.10
2018-06-22T02:13:14.694Z,10.10
2018-06-22T02:13:48.895Z,10.10
2018-06-22T02:14:22.840Z,10.10
2018-06-22T02:14:56.786Z,10.10
2018-06-22T02:15:30.726Z,10.10
2018-06-22T02:16:04.860Z,10.10
2018-06-22T02:16:38.762Z,10.10
2018-06-22T02:17:12.982Z,10.10
2018-06-22T02:17:46.954Z,10.10
2018-06-22T02:18:20.853Z,10.10
2018-06-22T02:18:55.154Z,10.10
2018-06-22T02:19:29.054Z,10.10
2018-06-22T02:20:03.290Z,10.10
2018-06-22T02:20:37.494Z,10.10
2018-06-22T02:21:11.385Z,10.10
2018-06-22T02:21:45.345Z,10.10
2018-06-22T02:22:19.651Z,10.10
2018-06-22T02:23:27.483Z,10.10
2018-06-22T02:24:01.706Z,10.10
2018-06-22T02:24:35.648Z,10.10
2018-06-22T02:25:43.154Z,10.10
2018-06-22T02:26:17.386Z,10.10
2018-06-22T02:26:51.540Z,10.10
2018-06-22T02:27:26.033Z,10.10
2018-06-22T02:27:59.900Z,10.10
2018-06-22T02:28:33.818Z,10.10
2018-06-22T02:29:07.712Z,10.10
2018-06-22T02:29:41.676Z,10.10
2018-06-22T02:30:15.576Z,10.10
2018-06-22T02:30:49.749Z,10.10
2018-06-22T02:31:24.012Z,10.10
2018-06-22T02:31:58.083Z,10.10
2018-06-22T02:32:32.017Z,10.10
2018-06-22T02:33:06.017Z,10.10
2018-06-22T02:33:39.908Z,10.10
2018-06-22T02:34:13.812Z,10.10
2018-06-22T02:35:21.274Z,10.10
2018-06-22T02:35:55.283Z,10.10
2018-06-22T02:36:29.214Z,10.10
2018-06-22T02:37:03.750Z,10.20
2018-06-22T02:37:37.677Z,10.10
2018-06-22T02:38:11.706Z,10.10
2018-06-22T02:38:45.937Z,10.10
2018-06-22T02:39:20.089Z,10.10
2018-06-22T02:39:54.036Z,10.10
2018-06-22T02:40:27.962Z,10.10
2018-06-22T02:41:04.566Z,10.10
2018-06-22T02:41:38.728Z,10.10
2018-06-22T02:42:12.616Z,10.10
2018-06-22T02:42:46.680Z,10.10
2018-06-22T02:43:20.607Z,10.10
2018-06-22T02:43:54.551Z,10.10
2018-06-22T02:44:28.443Z,10.10
2018-06-22T02:45:02.417Z,10.10
2018-06-22T02:45:36.288Z,10.10
2018-06-22T02:46:10.184Z,10.10
2018-06-22T02:46:44.336Z,10.10
2018-06-22T02:47:18.222Z,10.10
2018-06-22T02:47:52.087Z,10.10
2018-06-22T02:48:25.986Z,10.10
2018-06-22T02:49:00.133Z,10.10
2018-06-22T02:49:34.268Z,10.10
2018-06-22T02:50:08.490Z,10.10
2018-06-22T02:50:42.636Z,10.10
2018-06-22T02:51:16.834Z,10.10
2018-06-22T02:51:50.990Z,10.10
2018-06-22T02:52:24.946Z,10.10
2018-06-22T02:52:59.188Z,10.10
2018-06-22T02:53:33.314Z,10.10
2018-06-22T02:54:07.180Z,10.10
2018-06-22T02:54:41.102Z,10.10
2018-06-22T02:55:15.258Z,10.10
2018-06-22T02:55:49.480Z,10.20
2018-06-22T02:56:23.355Z,10.20
2018-06-22T02:56:57.554Z,10.20
2018-06-22T02:57:31.431Z,10.20
2018-06-22T02:58:05.733Z,10.20
2018-06-22T02:58:39.648Z,10.20
2018-06-22T02:59:13.560Z,10.20
2018-06-22T02:59:47.527Z,10.30
2018-06-22T03:00:21.410Z,10.30
2018-06-22T03:00:55.890Z,10.20
2018-06-22T03:02:03.676Z,10.30
2018-06-22T03:02:37.598Z,10.30
2018-06-22T03:03:11.689Z,10.30
2018-06-22T03:03:46.168Z,10.30
2018-06-22T03:04:20.356Z,10.30
2018-06-22T03:04:54.232Z,10.20
2018-06-22T03:05:28.148Z,10.20
2018-06-22T03:06:02.472Z,10.20
2018-06-22T03:06:36.632Z,10.20
2018-06-22T03:07:10.502Z,10.20
2018-06-22T03:07:44.396Z,10.20
2018-06-22T03:08:18.286Z,10.20
2018-06-22T03:08:52.414Z,10.20
2018-06-22T03:09:26.304Z,10.20
2018-06-22T03:10:02.938Z,10.20
2018-06-22T03:10:37.070Z,10.20
2018-06-22T03:11:11.278Z,10.20
2018-06-22T03:11:45.444Z,10.20
2018-06-22T03:12:19.339Z,10.20
2018-06-22T03:12:53.490Z,10.20
2018-06-22T03:13:27.636Z,10.20
2018-06-22T03:14:01.838Z,10.20
2018-06-22T03:14:36.040Z,10.20
2018-06-22T03:15:10.278Z,10.20
2018-06-22T03:15:44.406Z,10.20
2018-06-22T03:16:18.560Z,10.20
2018-06-22T03:16:52.420Z,10.20
2018-06-22T03:17:26.332Z,10.20
2018-06-22T03:18:00.226Z,10.20
2018-06-22T03:18:34.125Z,10.20
2018-06-22T03:19:08.284Z,10.20
2018-06-22T03:19:42.417Z,10.20
2018-06-22T03:20:16.540Z,10.30
2018-06-22T03:20:50.500Z,10.30
2018-06-22T03:21:24.724Z,10.20
2018-06-22T03:21:58.614Z,10.20
2018-06-22T03:22:32.510Z,10.20
2018-06-22T03:23:40.676Z,10.20
2018-06-22T03:24:14.842Z,10.20
2018-06-22T03:24:48.738Z,10.20
2018-06-22T03:25:22.576Z,10.20
2018-06-22T03:25:56.496Z,10.30
2018-06-22T03:26:30.366Z,10.30
2018-06-22T03:27:04.564Z,10.20
2018-06-22T03:27:39.076Z,10.20
2018-06-22T03:28:13.135Z,10.30
2018-06-22T03:28:47.024Z,10.20
2018-06-22T03:29:20.886Z,10.30
2018-06-22T03:29:55.290Z,10.30
2018-06-22T03:30:29.162Z,10.30
2018-06-22T03:31:03.296Z,10.30
2018-06-22T03:31:37.214Z,10.30
2018-06-22T03:32:11.452Z,10.30
2018-06-22T03:32:45.538Z,10.30
2018-06-22T03:33:19.404Z,10.30
2018-06-22T03:33:53.310Z,10.30
2018-06-22T03:34:27.167Z,10.30
2018-06-22T03:35:01.038Z,10.30
2018-06-22T03:35:34.982Z,10.30
2018-06-22T03:36:08.840Z,10.30
2018-06-22T03:36:43.032Z,10.30
2018-06-22T03:37:16.983Z,10.30
2018-06-22T03:37:51.000Z,10.30
2018-06-22T03:38:24.874Z,10.30
2018-06-22T03:38:58.786Z,10.30
2018-06-22T03:39:32.698Z,10.30
2018-06-22T03:40:06.738Z,10.30
2018-06-22T03:40:40.600Z,10.30
2018-06-22T03:41:14.464Z,10.30
2018-06-22T03:41:48.578Z,10.30
2018-06-22T03:42:22.462Z,10.30
2018-06-22T03:42:56.382Z,10.30
2018-06-22T03:43:30.252Z,10.30
2018-06-22T03:44:04.456Z,10.30
2018-06-22T03:44:38.345Z,10.30
2018-06-22T03:45:12.233Z,10.30
2018-06-22T03:45:46.072Z,10.30
2018-06-22T03:46:19.957Z,10.30
2018-06-22T03:46:53.798Z,10.30
2018-06-22T03:47:27.860Z,10.40
2018-06-22T03:48:01.883Z,10.40
2018-06-22T03:48:35.746Z,10.40
2018-06-22T03:49:09.624Z,10.40
2018-06-22T03:49:43.476Z,10.40
2018-06-22T03:50:17.344Z,10.40
2018-06-22T03:50:51.394Z,10.50
2018-06-22T03:51:25.550Z,10.50
2018-06-22T03:51:59.644Z,10.50
2018-06-22T03:52:34.207Z,10.60
2018-06-22T03:53:08.076Z,10.60
2018-06-22T03:53:41.927Z,10.70
2018-06-22T03:54:22.633Z,10.70
2018-06-22T03:54:56.533Z,10.80
2018-06-22T03:55:30.598Z,10.80
2018-06-22T03:56:04.832Z,10.90
2018-06-22T03:56:38.739Z,10.90
2018-06-22T03:57:12.956Z,11.00
2018-06-22T03:57:47.178Z,11.00
2018-06-22T03:58:21.094Z,11.10
2018-06-22T03:58:55.366Z,11.10
2018-06-22T03:59:29.275Z,11.20
2018-06-22T04:00:03.146Z,11.30
2018-06-22T04:00:37.138Z,11.40
2018-06-22T04:01:10.992Z,11.40
2018-06-22T04:01:44.877Z,11.50
2018-06-22T04:02:18.756Z,11.60
2018-06-22T04:02:52.648Z,11.80
2018-06-22T04:03:26.543Z,11.90
2018-06-22T04:04:00.397Z,12.10
2018-06-22T04:04:34.628Z,12.30
2018-06-22T04:05:08.646Z,12.50
2018-06-22T04:05:42.530Z,12.70
2018-06-22T04:06:16.408Z,12.90
2018-06-22T04:06:50.274Z,13.10
2018-06-22T04:07:24.282Z,13.20
2018-06-22T04:07:58.134Z,13.40
2018-06-22T04:08:32.068Z,13.50
2018-06-22T04:09:06.740Z,13.60
2018-06-22T04:09:40.822Z,13.70
2018-06-22T04:10:15.072Z,13.70
2018-06-22T04:10:49.104Z,13.80
2018-06-22T04:11:22.959Z,13.90
2018-06-22T04:11:56.868Z,13.90
2018-06-22T04:12:30.774Z,14.00
2018-06-22T04:13:05.092Z,14.10
2018-06-22T04:13:39.037Z,14.20
2018-06-22T04:14:12.902Z,14.30
2018-06-22T04:14:47.138Z,14.40
2018-06-22T04:15:21.344Z,14.50
2018-06-22T04:15:55.236Z,14.50
2018-06-22T04:16:29.112Z,14.60
2018-06-22T04:17:02.993Z,14.70
2018-06-22T04:17:46.006Z,14.70
2018-06-22T04:18:19.882Z,14.60
2018-06-22T04:18:53.754Z,14.60
2018-06-22T04:19:27.656Z,14.50
2018-06-22T04:20:01.515Z,14.50
2018-06-22T04:20:35.406Z,14.40
2018-06-22T04:21:09.286Z,14.30
2018-06-22T04:21:43.509Z,14.10
2018-06-22T04:22:17.370Z,14.10
2018-06-22T04:22:51.852Z,14.00
2018-06-22T04:23:25.792Z,13.90
2018-06-22T04:23:59.744Z,13.80
2018-06-22T04:24:33.616Z,13.70
2018-06-22T04:25:07.848Z,13.60
2018-06-22T04:25:42.064Z,13.50
2018-06-22T04:26:15.944Z,13.30
2018-06-22T04:26:49.877Z,13.20
2018-06-22T04:27:23.748Z,13.10
2018-06-22T04:27:57.660Z,13.10
2018-06-22T04:28:31.541Z,13.00
2018-06-22T04:29:05.431Z,12.90
2018-06-22T04:29:39.294Z,12.90
2018-06-22T04:30:13.496Z,12.80
2018-06-22T04:30:47.548Z,12.80
2018-06-22T04:31:21.452Z,12.70
2018-06-22T04:31:55.408Z,12.70
2018-06-22T04:32:29.742Z,12.70
2018-06-22T04:33:03.655Z,12.60
2018-06-22T04:33:37.550Z,12.60
2018-06-22T04:34:11.626Z,12.60
2018-06-22T04:34:45.480Z,12.60
2018-06-22T04:35:19.358Z,12.50
2018-06-22T04:35:53.582Z,12.50
2018-06-22T04:36:27.448Z,12.50
2018-06-22T04:37:01.706Z,12.50
2018-06-22T04:37:35.632Z,12.40
2018-06-22T04:38:09.488Z,12.40
2018-06-22T04:38:43.533Z,12.30
2018-06-22T04:39:17.624Z,12.30
2018-06-22T04:39:51.516Z,12.30
2018-06-22T04:40:25.376Z,12.30
2018-06-22T04:40:59.302Z,12.30
2018-06-22T04:41:33.202Z,12.30
2018-06-22T04:42:07.096Z,12.40
2018-06-22T04:42:40.973Z,12.40
2018-06-22T04:43:14.922Z,12.40
2018-06-22T04:43:48.781Z,12.50
2018-06-22T04:44:22.714Z,12.50
2018-06-22T04:44:56.644Z,12.60
2018-06-22T04:45:30.531Z,12.70
2018-06-22T04:46:04.424Z,12.70
2018-06-22T04:46:38.380Z,12.70
2018-06-22T04:47:12.244Z,12.80
2018-06-22T04:47:46.154Z,12.80
2018-06-22T04:48:20.246Z,12.90
2018-06-22T04:48:54.189Z,13.00
2018-06-22T04:49:28.138Z,13.10
2018-06-22T04:50:02.811Z,13.10
2018-06-22T04:50:36.692Z,13.10
2018-06-22T04:51:10.598Z,13.20
2018-06-22T04:51:44.813Z,13.20
2018-06-22T04:52:18.686Z,13.20
2018-06-22T04:53:55.544Z,13.30
2018-06-22T04:54:29.821Z,13.40
2018-06-22T04:55:03.675Z,13.50
2018-06-22T04:55:37.563Z,13.60
2018-06-22T04:56:11.473Z,13.50
2018-06-22T04:56:45.537Z,13.60
2018-06-22T04:57:19.409Z,13.60
2018-06-22T04:57:53.299Z,13.60
2018-06-22T04:58:27.155Z,13.70
2018-06-22T04:59:01.045Z,13.80
2018-06-22T04:59:34.944Z,13.90
2018-06-22T05:00:08.808Z,14.00
2018-06-22T05:00:42.681Z,14.00
2018-06-22T05:01:16.721Z,14.10
2018-06-22T05:01:50.597Z,14.10
2018-06-22T05:02:24.492Z,14.00
2018-06-22T05:02:58.393Z,14.00
2018-06-22T05:03:32.568Z,14.00
2018-06-22T05:04:06.717Z,13.90
2018-06-22T05:04:40.670Z,13.90
2018-06-22T05:05:14.542Z,13.80
2018-06-22T05:05:48.505Z,13.80
2018-06-22T05:06:22.545Z,13.70
2018-06-22T05:06:56.461Z,13.70
2018-06-22T05:07:30.683Z,13.70
2018-06-22T05:08:04.947Z,13.60
2018-06-22T05:08:38.821Z,13.60
2018-06-22T05:09:12.725Z,13.60
2018-06-22T05:09:46.966Z,13.60
2018-06-22T05:10:20.878Z,13.70
2018-06-22T05:10:54.805Z,13.80
2018-06-22T05:11:29.369Z,14.10
2018-06-22T05:12:03.219Z,14.20
2018-06-22T05:12:37.051Z,14.40
2018-06-22T05:13:10.929Z,14.50
2018-06-22T05:13:44.813Z,14.60
2018-06-22T05:14:18.695Z,14.70
2018-06-22T05:14:52.578Z,14.70
2018-06-22T05:15:26.443Z,14.70
2018-06-22T05:16:00.334Z,14.70
2018-06-22T05:16:34.213Z,14.70
2018-06-22T05:17:08.103Z,14.70
2018-06-22T05:17:42.121Z,14.70
2018-06-22T05:18:16.013Z,14.70
2018-06-22T05:18:49.910Z,14.70
2018-06-22T05:19:23.790Z,14.80
2018-06-22T05:19:57.735Z,14.80
2018-06-22T05:21:05.439Z,14.80
2018-06-22T05:21:39.325Z,14.80
2018-06-22T05:22:13.227Z,14.80
2018-06-22T05:22:47.190Z,14.80
2018-06-22T05:23:21.279Z,14.80
2018-06-22T05:23:55.141Z,14.80
2018-06-22T05:24:29.005Z,14.80
2018-06-22T05:25:02.903Z,14.80
2018-06-22T05:25:36.801Z,14.70
2018-06-22T05:26:44.941Z,14.60
2018-06-22T05:27:18.859Z,14.60
2018-06-22T05:28:26.295Z,14.60
2018-06-22T05:29:00.185Z,14.60
2018-06-22T05:29:34.404Z,14.60
2018-06-22T05:30:08.353Z,14.70
2018-06-22T05:30:42.210Z,14.80
2018-06-22T05:31:16.091Z,14.80
2018-06-22T05:31:49.997Z,15.00
2018-06-22T05:32:23.891Z,15.10
2018-06-22T05:32:57.799Z,15.10
2018-06-22T05:33:31.652Z,15.10
2018-06-22T05:34:05.840Z,15.10
2018-06-22T05:34:39.817Z,15.10
2018-06-22T05:35:13.728Z,15.00
2018-06-22T05:35:47.671Z,15.10
2018-06-22T05:36:21.721Z,15.10
2018-06-22T05:37:35.767Z,15.30
2018-06-22T05:38:09.647Z,15.40
2018-06-22T05:38:43.562Z,15.60
2018-06-22T05:39:17.434Z,15.70
2018-06-22T05:39:51.297Z,15.90
2018-06-22T05:40:25.209Z,16.00
2018-06-22T05:40:59.109Z,16.20
2018-06-22T05:41:33.071Z,16.30
2018-06-22T05:42:07.461Z,16.30
2018-06-22T05:42:41.342Z,16.40
2018-06-22T05:43:15.207Z,16.30
2018-06-22T05:43:49.097Z,16.30
2018-06-22T05:44:23.306Z,16.30
2018-06-22T05:44:57.527Z,16.20
2018-06-22T05:45:31.508Z,16.10
2018-06-22T05:46:06.113Z,16.00
2018-06-22T05:46:40.034Z,15.80
2018-06-22T05:47:13.905Z,15.70
2018-06-22T05:47:47.800Z,15.60
2018-06-22T05:48:21.737Z,15.40
2018-06-22T05:48:55.965Z,15.40
2018-06-22T05:49:29.835Z,15.30
2018-06-22T05:50:03.819Z,15.20
2018-06-22T05:50:37.779Z,15.20
2018-06-22T05:51:12.719Z,15.10
2018-06-22T05:51:46.641Z,15.00
2018-06-22T05:52:20.567Z,15.00
2018-06-22T05:53:28.321Z,15.10
2018-06-22T05:54:02.253Z,15.20
2018-06-22T05:54:36.138Z,15.30
2018-06-22T05:55:09.985Z,15.40
2018-06-22T05:55:43.902Z,15.60
2018-06-22T05:56:17.793Z,15.70
2018-06-22T05:56:51.787Z,15.80
2018-06-22T05:57:26.099Z,15.80
2018-06-22T05:57:59.969Z,15.90
2018-06-22T05:58:33.911Z,16.00
2018-06-22T05:59:08.143Z,16.10
2018-06-22T05:59:42.035Z,16.20
2018-06-22T06:00:16.245Z,16.40
2018-06-22T06:00:50.164Z,16.40
2018-06-22T06:01:24.395Z,16.50
2018-06-22T06:01:58.309Z,16.50
2018-06-22T06:02:32.185Z,16.60
2018-06-22T06:03:06.144Z,16.60
2018-06-22T06:03:40.181Z,16.60
2018-06-22T06:04:14.286Z,16.60
2018-06-22T06:04:48.344Z,16.60
2018-06-22T06:05:22.209Z,16.60
2018-06-22T06:05:56.095Z,16.70
2018-06-22T06:06:29.979Z,16.80
2018-06-22T06:07:04.201Z,16.80
2018-06-22T06:07:38.095Z,16.80
2018-06-22T06:08:11.967Z,16.80
2018-06-22T06:08:46.021Z,16.80
2018-06-22T06:09:19.899Z,16.80
2018-06-22T06:09:54.126Z,16.80
2018-06-22T06:10:28.017Z,16.80
2018-06-22T06:11:01.903Z,16.80
2018-06-22T06:11:35.780Z,16.70
2018-06-22T06:12:09.695Z,16.80
2018-06-22T06:12:43.627Z,16.80
2018-06-22T06:13:17.665Z,16.80
2018-06-22T06:13:51.559Z,16.80
2018-06-22T06:14:25.471Z,16.80
2018-06-22T06:14:59.574Z,16.80
2018-06-22T06:15:33.811Z,16.70
2018-06-22T06:16:08.314Z,16.60
2018-06-22T06:16:42.198Z,16.50
2018-06-22T06:17:17.023Z,16.40
2018-06-22T06:17:50.936Z,16.30
2018-06-22T06:18:24.865Z,16.20
2018-06-22T06:18:59.245Z,16.20
2018-06-22T06:19:33.125Z,16.00
2018-06-22T06:20:08.843Z,15.90
2018-06-22T06:20:42.929Z,15.80
2018-06-22T06:21:16.835Z,15.70
2018-06-22T06:21:50.723Z,15.80
2018-06-22T06:22:24.618Z,15.80
2018-06-22T06:22:58.534Z,15.90
2018-06-22T06:23:32.759Z,16.00
2018-06-22T06:24:07.020Z,16.10
2018-06-22T06:24:40.883Z,16.10
2018-06-22T06:25:14.777Z,16.10
2018-06-22T06:25:48.743Z,16.10
2018-06-22T06:26:22.704Z,16.00
2018-06-22T06:26:56.590Z,16.00
2018-06-22T06:27:30.456Z,15.90
2018-06-22T06:28:04.346Z,15.90
2018-06-22T06:28:38.214Z,15.80
2018-06-22T06:29:12.069Z,15.80
2018-06-22T06:29:46.257Z,15.70
2018-06-22T06:30:20.111Z,15.70
2018-06-22T06:30:54.061Z,15.70
2018-06-22T06:31:28.287Z,15.70
2018-06-22T06:32:02.177Z,15.70
2018-06-22T06:32:36.099Z,15.70
2018-06-22T06:33:43.487Z,15.70
2018-06-22T06:34:17.419Z,15.70
2018-06-22T06:34:51.449Z,15.70
2018-06-22T06:35:25.545Z,15.60
2018-06-22T06:35:59.767Z,15.60
2018-06-22T06:36:33.642Z,15.60
2018-06-22T06:37:07.520Z,15.70
2018-06-22T06:37:41.413Z,15.70
2018-06-22T06:38:15.296Z,15.70
2018-06-22T06:38:49.171Z,15.80
2018-06-22T06:39:23.096Z,15.80
2018-06-22T06:39:56.984Z,15.80
2018-06-22T06:40:30.956Z,15.90
2018-06-22T06:41:04.833Z,15.90
2018-06-22T06:41:38.809Z,15.90
2018-06-22T06:42:13.579Z,15.90
2018-06-22T06:42:47.455Z,15.90
2018-06-22T06:43:21.351Z,15.90
2018-06-22T06:43:55.225Z,15.90
2018-06-22T06:44:29.089Z,15.90
2018-06-22T06:45:02.983Z,15.90
2018-06-22T06:45:36.877Z,15.90
2018-06-22T06:46:11.036Z,15.90
2018-06-22T06:46:44.974Z,15.90
2018-06-22T06:47:18.881Z,16.00
2018-06-22T06:47:52.777Z,16.00
2018-06-22T06:48:26.712Z,16.00
2018-06-22T06:49:00.610Z,16.00
2018-06-22T06:49:34.545Z,16.00
2018-06-22T06:50:08.604Z,16.10
2018-06-22T06:50:42.802Z,16.10
2018-06-22T06:51:16.729Z,16.10
2018-06-22T06:51:50.870Z,16.20
2018-06-22T06:52:24.705Z,16.10
2018-06-22T06:52:58.598Z,16.10
2018-06-22T06:53:32.492Z,16.10
2018-06-22T06:54:06.353Z,16.10
2018-06-22T06:55:13.745Z,16.00
2018-06-22T06:55:47.652Z,15.90
2018-06-22T06:56:21.500Z,15.90
2018-06-22T06:56:55.824Z,15.90
2018-06-22T06:57:29.690Z,15.90
2018-06-22T06:58:03.923Z,15.90
2018-06-22T06:58:37.818Z,15.90
2018-06-22T06:59:45.236Z,16.00
2018-06-22T07:00:19.118Z,16.00
2018-06-22T07:00:52.978Z,16.10
2018-06-22T07:01:26.925Z,16.10
2018-06-22T07:02:34.854Z,16.30
2018-06-22T07:03:09.274Z,16.30
2018-06-22T07:03:43.226Z,16.30
2018-06-22T07:04:17.131Z,16.30
2018-06-22T07:04:51.040Z,16.40
2018-06-22T07:05:24.988Z,16.40
2018-06-22T07:05:58.880Z,16.40
2018-06-22T07:06:32.764Z,16.40
2018-06-22T07:07:06.674Z,16.40
2018-06-22T07:07:40.676Z,16.50
2018-06-22T07:08:15.090Z,16.40
2018-06-22T07:08:48.982Z,16.40
2018-06-22T07:09:22.870Z,16.40
2018-06-22T07:09:57.097Z,16.40
2018-06-22T07:11:04.566Z,16.30
2018-06-22T07:11:38.980Z,16.30
2018-06-22T07:12:12.871Z,16.40
2018-06-22T07:12:46.732Z,16.40
2018-06-22T07:13:20.646Z,16.30
2018-06-22T07:13:54.535Z,16.40
2018-06-22T07:14:28.404Z,16.30
2018-06-22T07:15:40.842Z,16.20
2018-06-22T07:16:21.696Z,16.10
2018-06-22T07:16:55.727Z,16.10
2018-06-22T07:17:29.982Z,16.10
2018-06-22T07:18:03.982Z,16.10
2018-06-22T07:18:37.878Z,16.10
2018-06-22T07:19:12.106Z,16.00
2018-06-22T07:19:45.994Z,16.00
2018-06-22T07:20:19.898Z,15.90
2018-06-22T07:20:53.742Z,15.90
2018-06-22T07:22:15.546Z,15.90
2018-06-22T07:22:49.465Z,15.80
2018-06-22T07:23:23.385Z,15.80
2018-06-22T07:23:57.444Z,15.80
2018-06-22T07:24:31.365Z,15.90
2018-06-22T07:25:05.670Z,15.90
2018-06-22T07:25:39.549Z,16.00
2018-06-22T07:26:13.442Z,16.00
2018-06-22T07:26:47.584Z,16.10
2018-06-22T07:27:21.478Z,16.00
2018-06-22T07:27:55.424Z,16.10
2018-06-22T07:28:29.306Z,16.10
2018-06-22T07:29:03.401Z,16.00
2018-06-22T07:29:37.305Z,16.10
2018-06-22T07:30:11.418Z,16.10
2018-06-22T07:30:46.254Z,16.10
2018-06-22T07:31:20.178Z,16.00
2018-06-22T07:31:54.052Z,16.00
2018-06-22T07:32:27.942Z,16.00